»·PEaware :: PSV130 KSAN-KSNA

PSV130 :: KSAN-KSNA

FLIGHT INFORMATION

Flight Status: Arrived
Operator:
Power Set Virtual (website)
More flights by this operator :: More flights under this callsign
Pilot: Anonymous 24489 (24489)
Aircraft: AIRBUS A320
(A320)
More flights by this aircraft type
Origin: KSAN San Diego Intl-Lindbergh
United States
Destination: KSNA John Wayne-Orange Co
United States
More flights between these airports :: More routes between these airports
Route: PEBLE6 SLI
File this flight plan on PilotEdge
Remarks: RMK / SIMBRIEF
Altitude:
(Current/Filed)
16,000ft
Speed:
(Current/Filed)
376kts
Departed: 16-Apr-20 03:04 PM
Arrived: 16-Apr-20 03:27 PM
Distance/Time
Traveled:
66nm/0:22
Distance/Time
To Go:
Arrived

Flight Plot

Page will automatically refresh every two minutes.


Map Options




Map Legend


Flown Route
Filed Route
Departure Airport
Arrival Airport
Navaid (VOR, NDB)
Fix

Horizontal Profiles

Position Reports

Time Latitude Longitude Heading Altitude Ground
Speed
16-Apr-20 14:28 32.733159 -117.195675 227 29ft 0kts
16-Apr-20 14:29 32.733159 -117.195675 227 29ft 0kts
16-Apr-20 14:30 32.733159 -117.195675 227 29ft 0kts
16-Apr-20 14:31 32.733159 -117.195675 227 29ft 0kts
16-Apr-20 14:32 32.733159 -117.195675 227 29ft 0kts
16-Apr-20 14:33 32.733159 -117.195675 227 29ft 0kts
16-Apr-20 14:34 32.733159 -117.195675 227 29ft 0kts
16-Apr-20 14:35 32.733159 -117.195675 227 29ft 0kts
16-Apr-20 14:36 32.733159 -117.195675 227 29ft 0kts
16-Apr-20 14:37 32.733159 -117.195675 227 29ft 0kts
16-Apr-20 14:38 32.733159 -117.195675 227 29ft 0kts
16-Apr-20 14:39 32.733159 -117.195675 227 29ft 0kts
16-Apr-20 14:40 32.733159 -117.195675 227 29ft 0kts
16-Apr-20 14:41 32.733159 -117.195675 227 29ft 0kts
16-Apr-20 14:42 32.733159 -117.195675 227 29ft 0kts
16-Apr-20 14:43 32.733159 -117.195675 227 29ft 0kts
16-Apr-20 14:45 32.733159 -117.195675 227 29ft 0kts
16-Apr-20 14:46 32.733159 -117.195675 227 29ft 0kts
16-Apr-20 14:47 32.733159 -117.195675 227 29ft 0kts
16-Apr-20 14:48 32.733159 -117.195675 227 29ft 0kts
16-Apr-20 14:49 32.733159 -117.195675 227 29ft 0kts
16-Apr-20 14:50 32.733159 -117.195675 227 29ft 0kts
16-Apr-20 14:51 32.733159 -117.195675 227 29ft 0kts
16-Apr-20 14:52 32.733159 -117.195675 227 29ft 0kts
16-Apr-20 14:53 32.733159 -117.195675 227 29ft 0kts
16-Apr-20 14:54 32.733159 -117.195675 227 29ft 0kts
16-Apr-20 14:55 32.733188 -117.195636 227 29ft 1kts
16-Apr-20 14:56 32.733838 -117.195245 141 29ft 2kts
16-Apr-20 14:57 32.733953 -117.195536 106 29ft 0kts
16-Apr-20 14:58 32.733953 -117.195535 106 29ft 0kts
16-Apr-20 14:59 32.733575 -117.193976 104 29ft 20kts
16-Apr-20 15:00 32.731916 -117.187260 107 29ft 21kts
16-Apr-20 15:01 32.730269 -117.180374 106 29ft 22kts
16-Apr-20 15:02 32.729491 -117.177060 98 29ft 0kts
16-Apr-20 15:02 32.730265 -117.176108 307 29ft 11kts
16-Apr-20 15:04 32.743362 -117.216710 307 1624ft 166kts
16-Apr-20 15:05 32.773527 -117.267452 303 3589ft 217kts
16-Apr-20 15:05 32.805438 -117.323710 305 5290ft 272kts
16-Apr-20 15:06 32.870945 -117.370750 328 8541ft 285kts
16-Apr-20 15:08 32.946802 -117.444515 303 10002ft 352kts
16-Apr-20 15:08 32.993773 -117.529426 303 9993ft 375kts
16-Apr-20 15:10 33.063185 -117.648208 303 9983ft 374kts
16-Apr-20 15:10 33.114214 -117.732305 307 9982ft 374kts
16-Apr-20 15:12 33.185332 -117.833072 323 10004ft 376kts
16-Apr-20 15:12 33.267521 -117.867538 344 10018ft 378kts
16-Apr-20 15:13 33.368044 -117.903339 341 10012ft 377kts
16-Apr-20 15:14 33.455196 -117.934982 342 10019ft 377kts
16-Apr-20 15:15 33.553538 -117.970728 342 9544ft 343kts
16-Apr-20 15:16 33.631049 -117.998991 341 8507ft 289kts
16-Apr-20 15:17 33.706320 -118.026528 342 6900ft 280kts
16-Apr-20 15:18 33.777418 -118.009352 21 5229ft 276kts
16-Apr-20 15:19 33.847725 -117.975847 26 3578ft 268kts
16-Apr-20 15:20 33.872471 -117.903323 91 2980ft 240kts
16-Apr-20 15:21 33.871125 -117.822586 102 2985ft 240kts
16-Apr-20 15:22 33.822016 -117.784698 196 1975ft 234kts
16-Apr-20 15:23 33.767363 -117.811166 213 1643ft 189kts
16-Apr-20 15:24 33.721936 -117.842266 203 1369ft 166kts
16-Apr-20 15:25 33.686016 -117.862211 208 201ft 129kts
16-Apr-20 15:26 33.668102 -117.873685 200 70ft 10kts
16-Apr-20 15:27 33.667602 -117.872544 57 70ft 4kts
16-Apr-20 15:28 33.668798 -117.871234 40 70ft 6kts
16-Apr-20 15:29 33.670284 -117.869716 40 70ft 7kts
16-Apr-20 15:30 33.671969 -117.868185 26 70ft 7kts
16-Apr-20 15:31 33.676906 -117.864722 29 70ft 24kts
16-Apr-20 15:32 33.681224 -117.862014 52 70ft 1kts
16-Apr-20 15:33 33.681071 -117.861202 117 70ft 0kts
16-Apr-20 15:34 33.681071 -117.861201 117 70ft 0kts
16-Apr-20 15:35 33.681071 -117.861201 117 70ft 0kts
16-Apr-20 15:36 33.681071 -117.861201 117 70ft 0kts
16-Apr-20 15:37 33.681071 -117.861201 117 70ft 0kts
16-Apr-20 15:38 33.681071 -117.861201 117 70ft 0kts
16-Apr-20 15:39 33.681071 -117.861201 117 70ft 0kts
16-Apr-20 15:40 33.681071 -117.861201 117 70ft 0kts

Navigation Log

Ident Type
Flight plan parsing failed, navigation log unavailable